createdAt,value
2019-04-06T00:00:23.448Z,8.97
2019-04-06T00:02:58.584Z,9.03
2019-04-06T00:05:33.972Z,9.00
2019-04-06T00:08:10.006Z,9.08
2019-04-06T00:10:45.037Z,9.05
2019-04-06T00:13:20.106Z,9.05
2019-04-06T00:15:55.128Z,9.13
2019-04-06T00:18:30.244Z,9.09
2019-04-06T00:21:05.298Z,9.04
2019-04-06T00:23:40.356Z,8.99
2019-04-06T00:26:15.515Z,8.96
2019-04-06T00:28:50.952Z,8.92
2019-04-06T00:31:36.698Z,8.94
2019-04-06T00:34:11.975Z,8.99
2019-04-06T00:36:48.380Z,9.07
2019-04-06T00:39:23.629Z,8.97
2019-04-06T00:41:58.705Z,8.87
2019-04-06T00:44:34.325Z,8.86
2019-04-06T00:47:10.147Z,8.90
2019-04-06T00:49:45.299Z,8.90
2019-04-06T00:52:20.354Z,8.90
2019-04-06T00:54:55.390Z,8.94
2019-04-06T00:57:30.434Z,8.96
2019-04-06T01:00:05.997Z,8.93
2019-04-06T01:02:41.422Z,8.99
2019-04-06T01:05:16.417Z,8.96
2019-04-06T01:07:51.654Z,9.01
2019-04-06T01:10:26.840Z,9.01
2019-04-06T01:13:02.071Z,8.97
2019-04-06T01:15:37.131Z,8.89
2019-04-06T01:18:12.268Z,8.93
2019-04-06T01:20:47.289Z,8.95
2019-04-06T01:23:22.608Z,8.99
2019-04-06T01:26:06.577Z,9.08
2019-04-06T01:28:34.725Z,9.06
2019-04-06T01:31:09.729Z,9.12
2019-04-06T01:33:44.879Z,8.89
2019-04-06T01:36:19.897Z,8.94
2019-04-06T01:38:55.075Z,8.89
2019-04-06T01:41:30.177Z,8.89
2019-04-06T01:44:05.210Z,8.88
2019-04-06T01:46:41.422Z,8.89
2019-04-06T01:49:16.619Z,8.83
2019-04-06T01:51:51.938Z,8.76
2019-04-06T01:54:27.035Z,8.86
2019-04-06T01:57:04.161Z,8.90
2019-04-06T01:59:39.235Z,8.81
2019-04-06T02:02:24.807Z,8.81
2019-04-06T02:04:59.885Z,8.76
2019-04-06T02:07:35.208Z,8.79
2019-04-06T02:10:10.438Z,8.82
2019-04-06T02:12:45.771Z,8.82
2019-04-06T02:15:21.769Z,8.80
2019-04-06T02:17:56.773Z,8.89
2019-04-06T02:20:32.248Z,8.83
2019-04-06T02:23:10.366Z,8.78
2019-04-06T02:25:45.413Z,8.79
2019-04-06T02:28:21.508Z,8.77
2019-04-06T02:31:15.332Z,8.86
2019-04-06T02:34:18.290Z,8.82
2019-04-06T02:37:12.441Z,8.82
2019-04-06T02:40:09.397Z,8.88
2019-04-06T02:42:48.896Z,8.92
2019-04-06T02:45:23.983Z,8.90
2019-04-06T02:47:58.988Z,8.92
2019-04-06T02:50:34.488Z,8.91
2019-04-06T02:53:09.579Z,8.88
2019-04-06T02:55:44.599Z,8.90
2019-04-06T02:58:19.627Z,8.89
2019-04-06T03:00:54.858Z,8.89
2019-04-06T03:03:29.876Z,8.89
2019-04-06T03:06:05.996Z,8.93
2019-04-06T03:08:41.807Z,8.95
2019-04-06T03:11:16.828Z,9.02
2019-04-06T03:13:51.981Z,9.02
2019-04-06T03:16:27.396Z,8.93
2019-04-06T03:19:03.524Z,9.02
2019-04-06T03:21:38.748Z,8.91
2019-04-06T03:24:13.900Z,8.86
2019-04-06T03:27:00.712Z,8.97
2019-04-06T03:29:25.877Z,9.00
2019-04-06T03:32:01.371Z,9.03
2019-04-06T03:34:36.791Z,8.83
2019-04-06T03:37:12.093Z,8.89
2019-04-06T03:39:47.109Z,8.83
2019-04-06T03:42:22.349Z,8.80
2019-04-06T03:44:57.584Z,8.89
2019-04-06T03:47:32.876Z,8.82
2019-04-06T03:50:10.162Z,8.92
2019-04-06T03:52:45.407Z,8.80
2019-04-06T03:55:20.477Z,8.73
2019-04-06T03:57:55.515Z,8.70
2019-04-06T04:00:30.506Z,8.65
2019-04-06T04:03:06.237Z,8.67
2019-04-06T04:05:41.277Z,8.62
2019-04-06T04:08:16.549Z,8.69
2019-04-06T04:10:51.834Z,8.73
2019-04-06T04:13:27.444Z,8.71
2019-04-06T04:16:03.172Z,8.63
2019-04-06T04:18:39.192Z,8.52
2019-04-06T04:21:14.354Z,8.52
2019-04-06T04:23:49.332Z,8.67
2019-04-06T04:26:24.551Z,8.63
2019-04-06T04:29:00.451Z,8.54
2019-04-06T04:31:35.838Z,8.66
2019-04-06T04:34:11.061Z,8.61
2019-04-06T04:36:46.015Z,8.64
2019-04-06T04:39:21.164Z,8.74
2019-04-06T04:41:56.269Z,8.69
2019-04-06T04:44:31.272Z,8.65
2019-04-06T04:47:10.702Z,8.65
2019-04-06T04:49:45.737Z,8.80
2019-04-06T04:52:21.234Z,8.76
2019-04-06T04:54:56.420Z,8.77
2019-04-06T04:57:40.041Z,8.82
2019-04-06T05:00:14.645Z,8.79
2019-04-06T05:02:50.283Z,8.62
2019-04-06T05:05:25.535Z,8.78
2019-04-06T05:08:00.775Z,8.70
2019-04-06T05:10:35.961Z,8.74
2019-04-06T05:13:11.125Z,8.81
2019-04-06T05:16:13.488Z,8.87
2019-04-06T05:18:48.821Z,8.95
2019-04-06T05:21:24.657Z,8.94
2019-04-06T05:23:59.712Z,8.99
2019-04-06T05:26:39.821Z,8.94
2019-04-06T05:29:15.651Z,8.95
2019-04-06T05:31:50.653Z,9.00
2019-04-06T05:34:25.761Z,9.02
2019-04-06T05:37:01.541Z,9.05
2019-04-06T05:39:36.661Z,8.99
2019-04-06T05:42:11.793Z,9.05
2019-04-06T05:44:46.985Z,9.02
2019-04-06T05:47:22.157Z,9.17
2019-04-06T05:49:57.303Z,9.16
2019-04-06T05:52:33.177Z,9.14
2019-04-06T05:55:08.549Z,9.10
2019-04-06T05:57:43.756Z,9.29
2019-04-06T06:00:18.960Z,9.36
2019-04-06T06:02:54.153Z,9.54
2019-04-06T06:05:29.157Z,9.45
2019-04-06T06:08:04.556Z,9.51
2019-04-06T06:10:39.539Z,9.53
2019-04-06T06:13:14.663Z,9.57
2019-04-06T06:15:49.661Z,9.53
2019-04-06T06:18:27.492Z,9.83
2019-04-06T06:21:01.612Z,9.81
2019-04-06T06:23:36.641Z,9.83
2019-04-06T06:26:11.769Z,9.87
2019-04-06T06:28:46.769Z,9.94
2019-04-06T06:31:21.961Z,9.95
2019-04-06T06:33:57.156Z,9.86
2019-04-06T06:36:32.397Z,9.91
2019-04-06T06:39:09.754Z,9.98
2019-04-06T06:41:48.227Z,10.10
2019-04-06T06:44:23.463Z,10.13
2019-04-06T06:46:58.913Z,10.22
2019-04-06T06:49:34.303Z,10.37
2019-04-06T06:52:09.419Z,10.51
2019-04-06T06:54:44.695Z,10.53
2019-04-06T06:57:20.762Z,10.48
2019-04-06T06:59:59.004Z,10.62
2019-04-06T07:02:34.550Z,10.75
2019-04-06T07:05:11.073Z,10.95
2019-04-06T07:07:46.304Z,10.93
2019-04-06T07:10:21.424Z,10.91
2019-04-06T07:13:04.765Z,11.06
2019-04-06T07:15:39.847Z,11.06
2019-04-06T07:18:14.875Z,11.30
2019-04-06T07:20:49.921Z,11.39
2019-04-06T07:23:27.519Z,11.42
2019-04-06T07:26:07.951Z,11.49
2019-04-06T07:28:43.093Z,11.49
2019-04-06T07:31:18.071Z,11.38
2019-04-06T07:33:54.481Z,11.56
2019-04-06T07:36:29.524Z,11.59
2019-04-06T07:39:06.183Z,11.68
2019-04-06T07:41:44.322Z,11.73
2019-04-06T07:44:19.919Z,11.74
2019-04-06T07:46:55.005Z,11.85
2019-04-06T07:49:30.275Z,11.70
2019-04-06T07:52:05.729Z,11.76
2019-04-06T07:54:41.502Z,11.68
2019-04-06T07:57:16.509Z,11.75
2019-04-06T07:59:51.717Z,11.77
2019-04-06T08:02:28.468Z,11.73
2019-04-06T08:05:04.768Z,11.84
2019-04-06T08:07:39.977Z,11.85
2019-04-06T08:10:15.254Z,11.93
2019-04-06T08:12:50.295Z,12.01
2019-04-06T08:15:25.496Z,11.99
2019-04-06T08:18:03.759Z,12.13
2019-04-06T08:20:38.857Z,12.04
2019-04-06T08:23:14.341Z,11.89
2019-04-06T08:25:49.366Z,11.98
2019-04-06T08:28:24.658Z,12.05
2019-04-06T08:30:59.925Z,12.10
2019-04-06T08:33:36.597Z,12.23
2019-04-06T08:36:11.777Z,12.38
2019-04-06T08:38:46.967Z,12.48
2019-04-06T08:41:22.234Z,12.45
2019-04-06T08:43:57.229Z,12.69
2019-04-06T08:46:33.193Z,12.65
2019-04-06T08:49:08.294Z,12.56
2019-04-06T08:51:43.648Z,12.65
2019-04-06T08:54:18.706Z,12.70
2019-04-06T08:56:54.712Z,12.92
2019-04-06T08:59:30.067Z,13.21
2019-04-06T09:02:05.345Z,13.60
2019-04-06T09:04:40.435Z,13.78
2019-04-06T09:07:15.448Z,13.81
2019-04-06T09:09:50.459Z,13.60
2019-04-06T09:12:25.590Z,13.61
2019-04-06T09:15:00.685Z,13.77
2019-04-06T09:17:35.873Z,13.77
2019-04-06T09:20:11.325Z,13.89
2019-04-06T09:22:47.601Z,13.88
2019-04-06T09:25:23.734Z,13.86
2019-04-06T09:28:01.358Z,14.16
2019-04-06T09:30:55.797Z,14.33
2019-04-06T09:33:36.019Z,14.17
2019-04-06T09:36:12.140Z,14.30
2019-04-06T09:38:48.636Z,14.38
2019-04-06T09:41:26.079Z,14.32
2019-04-06T09:44:01.041Z,14.55
2019-04-06T09:47:00.275Z,14.65
2019-04-06T09:49:54.601Z,14.80
2019-04-06T09:52:38.726Z,14.75
2019-04-06T09:55:40.064Z,14.62
2019-04-06T09:58:40.013Z,14.63
2019-04-06T10:01:38.950Z,14.66
2019-04-06T10:04:43.449Z,14.68
2019-04-06T10:07:43.440Z,14.97
2019-04-06T10:10:38.102Z,15.01
2019-04-06T10:13:47.620Z,14.99
2019-04-06T10:16:41.909Z,14.99
2019-04-06T10:19:30.540Z,15.35
2019-04-06T10:22:42.507Z,15.47
2019-04-06T10:25:42.565Z,15.57
2019-04-06T10:28:34.932Z,15.73
2019-04-06T10:31:45.299Z,15.75
2019-04-06T10:34:41.874Z,15.82
2019-04-06T10:37:39.959Z,15.95
2019-04-06T10:40:35.485Z,15.72
2019-04-06T10:43:18.528Z,15.73
2019-04-06T10:46:22.080Z,16.00
2019-04-06T10:49:18.722Z,16.42
2019-04-06T10:52:14.868Z,16.72
2019-04-06T10:54:58.569Z,16.90
2019-04-06T10:57:56.078Z,17.11
2019-04-06T11:00:53.720Z,17.09
2019-04-06T11:03:44.552Z,17.04
2019-04-06T11:06:38.438Z,17.24
2019-04-06T11:09:40.741Z,17.42
2019-04-06T11:12:37.760Z,17.38
2019-04-06T11:15:30.477Z,17.57
2019-04-06T11:18:23.190Z,17.94
2019-04-06T11:21:22.215Z,18.08
2019-04-06T11:24:25.337Z,18.13
2019-04-06T11:27:22.267Z,18.66
2019-04-06T11:30:15.396Z,19.24
2019-04-06T11:33:07.009Z,19.20
2019-04-06T11:36:01.213Z,19.72
2019-04-06T11:38:50.030Z,19.84
2019-04-06T11:41:42.816Z,19.90
2019-04-06T11:44:33.043Z,19.92
2019-04-06T11:47:23.242Z,20.65
2019-04-06T11:50:26.114Z,20.88
2019-04-06T11:53:26.117Z,21.32
2019-04-06T11:56:09.993Z,21.63
2019-04-06T11:59:02.602Z,21.41
2019-04-06T12:02:02.634Z,21.18
2019-04-06T12:04:44.010Z,21.63
2019-04-06T12:07:29.452Z,22.28
2019-04-06T12:10:22.100Z,22.32
2019-04-06T12:13:19.940Z,22.54
2019-04-06T12:16:19.828Z,23.05
2019-04-06T12:19:15.188Z,22.93
2019-04-06T12:22:24.105Z,23.36
2019-04-06T12:25:16.901Z,23.29
2019-04-06T12:28:13.939Z,24.04
2019-04-06T12:30:53.536Z,24.17
2019-04-06T12:33:43.398Z,24.28
2019-04-06T12:36:22.962Z,24.70
2019-04-06T12:39:15.439Z,24.93
2019-04-06T12:42:03.972Z,25.25
2019-04-06T12:44:54.635Z,25.33
2019-04-06T12:47:48.505Z,24.99
2019-04-06T12:50:43.945Z,25.09
2019-04-06T12:53:37.886Z,25.35
2019-04-06T12:56:24.430Z,25.25
2019-04-06T12:59:21.832Z,25.83
2019-04-06T13:02:11.937Z,25.87
2019-04-06T13:05:00.634Z,25.91
2019-04-06T13:07:57.171Z,26.53
2019-04-06T13:10:47.306Z,26.22
2019-04-06T13:13:35.320Z,25.71
2019-04-06T13:16:34.122Z,26.06
2019-04-06T13:19:26.082Z,27.19
2019-04-06T13:22:24.086Z,27.37
2019-04-06T13:25:31.059Z,27.27
2019-04-06T13:28:22.458Z,27.40
2019-04-06T13:31:05.041Z,27.00
2019-04-06T13:33:57.836Z,27.39
2019-04-06T13:36:51.914Z,27.70
2019-04-06T13:39:36.566Z,27.79
2019-04-06T13:42:35.884Z,28.38
2019-04-06T13:45:36.925Z,27.40
2019-04-06T13:48:29.708Z,27.88
2019-04-06T13:51:15.364Z,27.13
2019-04-06T13:54:03.599Z,27.50
2019-04-06T13:56:56.166Z,28.75
2019-04-06T13:59:48.912Z,28.42
2019-04-06T14:02:38.618Z,29.08
2019-04-06T14:05:36.523Z,28.35
2019-04-06T14:08:33.599Z,28.47
2019-04-06T14:11:26.928Z,28.12
2019-04-06T14:14:13.130Z,28.13
2019-04-06T14:17:07.089Z,28.38
2019-04-06T14:20:00.806Z,29.51
2019-04-06T14:22:57.830Z,29.83
2019-04-06T14:25:53.230Z,30.10
2019-04-06T14:28:45.247Z,30.07
2019-04-06T14:31:45.275Z,29.83
2019-04-06T14:34:39.345Z,29.94
2019-04-06T14:37:36.178Z,29.85
2019-04-06T14:40:39.385Z,29.52
2019-04-06T14:43:32.316Z,30.83
2019-04-06T14:46:14.255Z,30.91
2019-04-06T14:49:29.435Z,31.01
2019-04-06T14:52:09.868Z,31.38
2019-04-06T14:55:00.256Z,31.15
2019-04-06T14:57:54.581Z,30.65
2019-04-06T15:00:51.822Z,30.01
2019-04-06T15:03:45.907Z,30.71
2019-04-06T15:06:42.575Z,30.72
2019-04-06T15:09:42.684Z,30.67
2019-04-06T15:12:35.655Z,29.75
2019-04-06T15:15:45.024Z,28.91
2019-04-06T15:18:36.777Z,29.76
2019-04-06T15:21:33.727Z,29.44
2019-04-06T15:24:26.122Z,28.77
2019-04-06T15:27:18.305Z,29.34
2019-04-06T15:30:27.328Z,28.99
2019-04-06T15:33:20.143Z,29.49
2019-04-06T15:36:08.273Z,29.72
2019-04-06T15:39:02.357Z,29.85
2019-04-06T15:41:56.342Z,30.39
2019-04-06T15:45:06.513Z,30.83
2019-04-06T15:48:06.635Z,31.23
2019-04-06T15:50:57.446Z,30.61
2019-04-06T15:53:51.159Z,30.57
2019-04-06T15:56:54.225Z,29.69
2019-04-06T16:00:03.341Z,29.60
2019-04-06T16:03:01.424Z,29.94
2019-04-06T16:05:45.922Z,28.79
2019-04-06T16:08:39.767Z,29.42
2019-04-06T16:11:25.941Z,29.39
2019-04-06T16:14:11.294Z,28.67
2019-04-06T16:17:17.678Z,28.80
2019-04-06T16:20:03.047Z,28.83
2019-04-06T16:23:12.229Z,29.09
2019-04-06T16:26:06.054Z,29.76
2019-04-06T16:28:47.671Z,29.50
2019-04-06T16:31:31.067Z,29.26
2019-04-06T16:34:23.496Z,28.60
2019-04-06T16:37:20.538Z,28.70
2019-04-06T16:40:14.626Z,28.19
2019-04-06T16:43:02.931Z,28.47
2019-04-06T16:46:05.978Z,28.76
2019-04-06T16:48:57.559Z,28.38
2019-04-06T16:51:52.981Z,29.04
2019-04-06T16:54:56.391Z,28.35
2019-04-06T16:58:02.370Z,28.15
2019-04-06T17:00:59.470Z,27.96
2019-04-06T17:03:56.093Z,26.86
2019-04-06T17:07:03.202Z,25.84
2019-04-06T17:09:45.661Z,25.21
2019-04-06T17:12:39.566Z,24.48
2019-04-06T17:15:36.263Z,23.88
2019-04-06T17:18:48.497Z,23.21
2019-04-06T17:21:42.688Z,22.67
2019-04-06T17:24:48.828Z,22.46
2019-04-06T17:27:49.034Z,22.03
2019-04-06T17:30:29.759Z,21.61
2019-04-06T17:33:22.495Z,21.42
2019-04-06T17:36:06.820Z,21.07
2019-04-06T17:38:54.840Z,20.90
2019-04-06T17:41:52.083Z,20.75
2019-04-06T17:44:39.403Z,20.62
2019-04-06T17:47:30.221Z,20.39
2019-04-06T17:50:24.820Z,20.05
2019-04-06T17:53:14.755Z,19.74
2019-04-06T17:56:09.149Z,19.38
2019-04-06T17:59:06.397Z,19.28
2019-04-06T18:02:00.530Z,19.13
2019-04-06T18:05:03.571Z,18.92
2019-04-06T18:07:56.962Z,18.68
2019-04-06T18:10:52.792Z,18.46
2019-04-06T18:13:54.544Z,18.28
2019-04-06T18:16:35.555Z,18.07
2019-04-06T18:19:11.373Z,17.80
2019-04-06T18:21:47.218Z,17.79
2019-04-06T18:24:24.158Z,17.70
2019-04-06T18:26:59.251Z,17.77
2019-04-06T18:29:36.906Z,17.57
2019-04-06T18:32:25.482Z,17.38
2019-04-06T18:35:00.422Z,17.30
2019-04-06T18:37:46.772Z,17.26
2019-04-06T18:40:25.325Z,17.02
2019-04-06T18:43:01.940Z,17.04
2019-04-06T18:45:37.078Z,17.09
2019-04-06T18:48:12.422Z,17.02
2019-04-06T18:50:47.484Z,16.95
2019-04-06T18:53:23.008Z,16.75
2019-04-06T18:55:58.501Z,16.75
2019-04-06T18:58:35.486Z,16.68
2019-04-06T19:01:11.161Z,16.53
2019-04-06T19:03:46.443Z,16.54
2019-04-06T19:06:24.719Z,16.49
2019-04-06T19:08:59.969Z,16.41
2019-04-06T19:11:44.474Z,16.41
2019-04-06T19:14:18.607Z,16.32
2019-04-06T19:16:53.903Z,16.07
2019-04-06T19:19:30.178Z,16.35
2019-04-06T19:22:05.656Z,16.34
2019-04-06T19:24:41.813Z,16.20
2019-04-06T19:27:19.897Z,16.27
2019-04-06T19:29:55.227Z,16.26
2019-04-06T19:32:30.591Z,16.20
2019-04-06T19:35:06.837Z,16.30
2019-04-06T19:37:42.249Z,16.14
2019-04-06T19:40:17.783Z,16.09
2019-04-06T19:42:53.669Z,16.09
2019-04-06T19:45:28.905Z,16.14
2019-04-06T19:48:05.377Z,16.02
2019-04-06T19:50:40.756Z,16.15
2019-04-06T19:53:16.586Z,16.14
2019-04-06T19:55:53.455Z,16.07
2019-04-06T19:58:28.550Z,16.01
2019-04-06T20:01:04.262Z,16.05
2019-04-06T20:03:40.371Z,15.97
2019-04-06T20:06:18.315Z,15.91
2019-04-06T20:08:53.924Z,15.77
2019-04-06T20:11:29.137Z,15.64
2019-04-06T20:14:05.416Z,15.68
2019-04-06T20:16:40.809Z,15.68
2019-04-06T20:19:16.180Z,15.51
2019-04-06T20:21:52.016Z,15.54
2019-04-06T20:24:27.381Z,15.44
2019-04-06T20:27:02.763Z,15.17
2019-04-06T20:29:37.993Z,15.29
2019-04-06T20:32:13.382Z,15.22
2019-04-06T20:34:53.938Z,15.10
2019-04-06T20:37:31.947Z,15.20
2019-04-06T20:40:09.650Z,15.06
2019-04-06T20:42:45.211Z,15.12
2019-04-06T20:45:20.427Z,15.04
2019-04-06T20:47:57.422Z,15.13
2019-04-06T20:50:34.356Z,15.12
2019-04-06T20:53:12.371Z,15.01
2019-04-06T20:55:47.488Z,15.05
2019-04-06T20:58:22.951Z,14.98
2019-04-06T21:00:58.182Z,14.91
2019-04-06T21:03:33.604Z,14.83
2019-04-06T21:06:08.799Z,14.82
2019-04-06T21:08:44.082Z,14.76
2019-04-06T21:11:20.521Z,14.85
2019-04-06T21:13:56.212Z,14.82
2019-04-06T21:16:32.178Z,14.73
2019-04-06T21:19:07.290Z,14.69
2019-04-06T21:21:42.731Z,14.74
2019-04-06T21:24:18.075Z,14.81
2019-04-06T21:26:53.346Z,14.68
2019-04-06T21:29:28.865Z,14.67
2019-04-06T21:32:04.026Z,14.59
2019-04-06T21:34:39.349Z,14.56
2019-04-06T21:37:15.097Z,14.59
2019-04-06T21:39:50.152Z,14.49
2019-04-06T21:42:25.407Z,14.48
2019-04-06T21:45:00.430Z,14.42
2019-04-06T21:47:37.535Z,14.54
2019-04-06T21:50:12.823Z,14.55
2019-04-06T21:52:49.548Z,14.48
2019-04-06T21:55:24.764Z,14.40
2019-04-06T21:57:59.808Z,14.41
2019-04-06T22:00:50.028Z,14.34
2019-04-06T22:03:25.861Z,14.33
2019-04-06T22:06:01.348Z,14.22
2019-04-06T22:08:36.392Z,14.20
2019-04-06T22:11:11.974Z,14.21
2019-04-06T22:13:47.434Z,14.18
2019-04-06T22:16:23.318Z,14.10
2019-04-06T22:18:58.819Z,13.97
2019-04-06T22:21:34.720Z,14.06
2019-04-06T22:24:10.413Z,14.00
2019-04-06T22:26:45.973Z,13.89
2019-04-06T22:29:22.167Z,13.78
2019-04-06T22:31:57.320Z,13.75
2019-04-06T22:34:39.436Z,13.91
2019-04-06T22:37:09.947Z,13.69
2019-04-06T22:39:45.368Z,13.77
2019-04-06T22:42:21.285Z,13.72
2019-04-06T22:44:56.396Z,13.70
2019-04-06T22:47:31.552Z,13.62
2019-04-06T22:50:07.694Z,13.58
2019-04-06T22:52:43.446Z,13.63
2019-04-06T22:55:18.533Z,13.63
2019-04-06T22:57:54.548Z,13.55
2019-04-06T23:00:32.810Z,13.55
2019-04-06T23:03:25.329Z,13.48
2019-04-06T23:06:04.029Z,13.50
2019-04-06T23:08:39.366Z,13.40
2019-04-06T23:11:14.491Z,13.41
2019-04-06T23:13:49.639Z,13.27
2019-04-06T23:16:24.716Z,13.30
2019-04-06T23:19:00.295Z,13.27
2019-04-06T23:21:36.186Z,13.24
2019-04-06T23:24:11.451Z,13.28
2019-04-06T23:26:46.555Z,13.08
2019-04-06T23:29:22.150Z,13.10
2019-04-06T23:31:57.625Z,13.11
2019-04-06T23:34:33.012Z,12.96
2019-04-06T23:37:08.403Z,12.89
2019-04-06T23:39:43.704Z,12.83
2019-04-06T23:42:18.719Z,12.72
2019-04-06T23:44:56.067Z,12.73
2019-04-06T23:47:34.132Z,12.69
2019-04-06T23:50:13.323Z,12.72
2019-04-06T23:52:49.104Z,12.69
2019-04-06T23:55:26.119Z,12.63
2019-04-06T23:58:02.000Z,12.60
